createdAt,value
2022-09-02T00:00:08.116Z,0
2022-09-02T00:00:34.835Z,0
2022-09-02T00:00:54.285Z,0
2022-09-02T00:01:26.348Z,0
2022-09-02T00:01:58.294Z,0
2022-09-02T00:02:30.373Z,.32
2022-09-02T00:03:02.369Z,.32
2022-09-02T00:03:34.194Z,.64
2022-09-02T00:04:06.349Z,1.44
2022-09-02T00:04:33.883Z,1.12
2022-09-02T00:04:54.367Z,0
2022-09-02T00:05:26.281Z,0
2022-09-02T00:05:58.210Z,0
2022-09-02T00:06:30.277Z,0
2022-09-02T00:07:02.392Z,1.44
2022-09-02T00:07:35.720Z,.32
2022-09-02T00:08:06.409Z,0
2022-09-02T00:08:37.185Z,0
2022-09-02T00:08:54.263Z,0
2022-09-02T00:09:26.360Z,.32
2022-09-02T00:09:58.318Z,.32
2022-09-02T00:10:30.245Z,1.77
2022-09-02T00:11:03.561Z,0
2022-09-02T00:11:34.884Z,0
2022-09-02T00:12:06.312Z,0
2022-09-02T00:12:33.887Z,1.12
2022-09-02T00:12:54.317Z,2.89
2022-09-02T00:13:26.299Z,1.77
2022-09-02T00:13:58.179Z,1.77
2022-09-02T00:14:30.200Z,1.12
2022-09-02T00:15:02.388Z,.32
2022-09-02T00:15:33.962Z,1.44
2022-09-02T00:15:50.329Z,2.89
2022-09-02T00:16:22.829Z,2.89
2022-09-02T00:16:40.009Z,2.89
2022-09-02T00:17:10.252Z,1.77
2022-09-02T00:17:33.932Z,1.77
2022-09-02T00:17:59.073Z,1.77
2022-09-02T00:18:30.184Z,2.89
2022-09-02T00:19:02.283Z,2.09
2022-09-02T00:19:33.854Z,2.09
2022-09-02T00:19:55.531Z,1.77
2022-09-02T00:20:22.185Z,1.44
2022-09-02T00:20:39.356Z,1.77
2022-09-02T00:21:10.208Z,1.77
2022-09-02T00:21:33.897Z,1.12
2022-09-02T00:21:59.280Z,2.89
2022-09-02T00:22:30.202Z,2.89
2022-09-02T00:23:02.295Z,1.77
2022-09-02T00:23:34.313Z,1.77
2022-09-02T00:24:06.383Z,3.21
2022-09-02T00:24:33.885Z,2.89
2022-09-02T00:24:54.301Z,2.57
2022-09-02T00:25:26.306Z,1.77
2022-09-02T00:25:58.205Z,1.77
2022-09-02T00:26:30.806Z,1.77
2022-09-02T00:27:02.558Z,1.77
2022-09-02T00:27:33.930Z,2.09
2022-09-02T00:27:50.277Z,.64
2022-09-02T00:28:22.242Z,1.44
2022-09-02T00:28:39.403Z,2.89
2022-09-02T00:29:10.576Z,1.12
2022-09-02T00:29:33.971Z,0
2022-09-02T00:29:58.403Z,2.57
2022-09-02T00:30:30.320Z,3.54
2022-09-02T00:31:03.197Z,1.77
2022-09-02T00:31:34.675Z,1.77
2022-09-02T00:32:06.527Z,1.44
2022-09-02T00:32:33.854Z,1.12
2022-09-02T00:32:54.288Z,1.77
2022-09-02T00:33:26.199Z,1.77
2022-09-02T00:33:58.206Z,1.12
2022-09-02T00:34:30.240Z,2.09
2022-09-02T00:35:02.272Z,.64
2022-09-02T00:35:33.893Z,1.77
2022-09-02T00:36:06.640Z,2.09
2022-09-02T00:36:33.914Z,1.77
2022-09-02T00:36:54.285Z,2.09
2022-09-02T00:37:28.054Z,1.77
2022-09-02T00:37:59.202Z,.64
2022-09-02T00:38:30.224Z,3.54
2022-09-02T00:39:17.991Z,1.44
2022-09-02T00:39:51.261Z,2.09
2022-09-02T00:40:22.278Z,3.21
2022-09-02T00:40:39.900Z,2.89
2022-09-02T00:41:10.201Z,1.77
2022-09-02T00:41:33.957Z,1.77
2022-09-02T00:41:58.792Z,1.44
2022-09-02T00:42:30.217Z,1.77
2022-09-02T00:43:02.249Z,1.77
2022-09-02T00:43:33.926Z,1.44
2022-09-02T00:44:06.230Z,2.09
2022-09-02T00:44:33.929Z,1.77
2022-09-02T00:44:54.244Z,.64
2022-09-02T00:45:26.417Z,0
2022-09-02T00:46:00.373Z,1.12
2022-09-02T00:46:30.376Z,0
2022-09-02T00:47:02.995Z,0
2022-09-02T00:47:35.229Z,0
2022-09-02T00:48:07.017Z,1.12
2022-09-02T00:48:33.914Z,.32
2022-09-02T00:48:55.031Z,0
2022-09-02T00:49:26.231Z,0
2022-09-02T00:49:59.139Z,0
2022-09-02T00:50:30.162Z,0
2022-09-02T00:51:02.286Z,1.77
2022-09-02T00:51:33.913Z,2.09
2022-09-02T00:51:50.271Z,.64
2022-09-02T00:52:22.189Z,0
2022-09-02T00:52:40.291Z,0
2022-09-02T00:53:10.198Z,.32
2022-09-02T00:53:33.866Z,1.77
2022-09-02T00:53:58.198Z,0
2022-09-02T00:54:30.202Z,1.77
2022-09-02T00:55:02.677Z,2.09
2022-09-02T00:55:33.900Z,1.77
2022-09-02T00:55:50.285Z,1.44
2022-09-02T00:56:22.259Z,1.12
2022-09-02T00:56:39.367Z,1.12
2022-09-02T00:57:10.110Z,1.44
2022-09-02T00:57:34.004Z,1.77
2022-09-02T00:57:58.863Z,1.77
2022-09-02T00:58:30.225Z,2.09
2022-09-02T00:59:02.231Z,2.09
2022-09-02T00:59:33.892Z,2.09
2022-09-02T01:00:06.786Z,1.12
2022-09-02T01:00:36.578Z,.32
2022-09-02T01:00:54.375Z,0
2022-09-02T01:01:26.280Z,1.12
2022-09-02T01:01:58.367Z,1.77
2022-09-02T01:02:30.257Z,1.77
2022-09-02T01:03:02.207Z,.64
2022-09-02T01:03:34.606Z,0
2022-09-02T01:04:11.213Z,.32
2022-09-02T01:04:33.985Z,1.44
2022-09-02T01:04:54.804Z,3.54
2022-09-02T01:05:27.335Z,2.09
2022-09-02T01:05:58.250Z,1.77
2022-09-02T01:06:30.273Z,3.21
2022-09-02T01:07:02.192Z,2.89
2022-09-02T01:07:33.897Z,1.44
2022-09-02T01:08:06.251Z,0
2022-09-02T01:08:34.586Z,0
2022-09-02T01:08:54.244Z,.64
2022-09-02T01:09:26.195Z,1.44
2022-09-02T01:09:58.954Z,0
2022-09-02T01:10:30.193Z,2.89
2022-09-02T01:11:02.286Z,2.89
2022-09-02T01:11:34.795Z,2.09
2022-09-02T01:12:06.210Z,1.77
2022-09-02T01:12:33.907Z,.32
2022-09-02T01:12:54.233Z,.64
2022-09-02T01:13:26.199Z,2.89
2022-09-02T01:13:58.182Z,1.77
2022-09-02T01:14:30.165Z,1.77
2022-09-02T01:15:03.280Z,0
2022-09-02T01:15:33.951Z,0
2022-09-02T01:16:06.252Z,.32
2022-09-02T01:16:34.058Z,1.77
2022-09-02T01:16:54.220Z,2.89
2022-09-02T01:17:27.504Z,2.57
2022-09-02T01:17:58.132Z,1.77
2022-09-02T01:18:30.169Z,.32
2022-09-02T01:19:02.232Z,0
2022-09-02T01:19:33.954Z,0
2022-09-02T01:20:07.527Z,1.12
2022-09-02T01:20:36.123Z,1.77
2022-09-02T01:20:54.302Z,0
2022-09-02T01:21:26.252Z,0
2022-09-02T01:21:59.207Z,0
2022-09-02T01:22:30.234Z,1.44
2022-09-02T01:23:02.194Z,1.77
2022-09-02T01:23:34.935Z,1.77
2022-09-02T01:24:06.280Z,0
2022-09-02T01:24:33.906Z,0
2022-09-02T01:24:54.157Z,0
2022-09-02T01:25:26.175Z,0
2022-09-02T01:25:58.208Z,.64
2022-09-02T01:26:30.137Z,0
2022-09-02T01:27:02.508Z,1.12
2022-09-02T01:27:33.882Z,1.77
2022-09-02T01:28:07.434Z,1.44
2022-09-02T01:28:33.946Z,1.12
2022-09-02T01:28:54.147Z,1.44
2022-09-02T01:29:27.575Z,1.77
2022-09-02T01:29:59.478Z,1.12
2022-09-02T01:30:30.165Z,.64
2022-09-02T01:31:02.379Z,0
2022-09-02T01:31:34.004Z,0
2022-09-02T01:32:06.209Z,0
2022-09-02T01:32:33.928Z,0
2022-09-02T01:32:54.130Z,0
2022-09-02T01:33:26.190Z,1.12
2022-09-02T01:33:58.226Z,2.89
2022-09-02T01:34:30.149Z,2.57
2022-09-02T01:35:02.176Z,1.77
2022-09-02T01:35:33.929Z,1.44
2022-09-02T01:36:06.195Z,1.12
2022-09-02T01:36:34.062Z,.64
2022-09-02T01:36:54.164Z,0
2022-09-02T01:37:26.078Z,0
2022-09-02T01:37:58.165Z,0
2022-09-02T01:38:30.441Z,0
2022-09-02T01:39:03.216Z,.32
2022-09-02T01:39:34.059Z,1.77
2022-09-02T01:40:06.588Z,.32
2022-09-02T01:40:34.124Z,0
2022-09-02T01:40:54.195Z,0
2022-09-02T01:41:26.132Z,0
2022-09-02T01:41:59.181Z,1.77
2022-09-02T01:42:32.065Z,1.12
2022-09-02T01:43:02.730Z,.32
2022-09-02T01:43:33.902Z,1.12
2022-09-02T01:44:07.223Z,2.09
2022-09-02T01:44:34.746Z,1.77
2022-09-02T01:44:55.161Z,1.77
2022-09-02T01:45:27.173Z,2.57
2022-09-02T01:45:58.190Z,1.77
2022-09-02T01:46:30.214Z,1.12
2022-09-02T01:47:02.292Z,0
2022-09-02T01:47:34.017Z,.64
2022-09-02T01:48:06.138Z,3.54
2022-09-02T01:48:33.965Z,5.47
2022-09-02T01:48:54.186Z,4.98
2022-09-02T01:49:26.172Z,4.34
2022-09-02T01:49:58.320Z,2.09
2022-09-02T01:50:30.877Z,2.09
2022-09-02T01:51:03.277Z,2.09
2022-09-02T01:51:34.062Z,1.44
2022-09-02T01:52:06.107Z,1.77
2022-09-02T01:52:33.988Z,1.44
2022-09-02T01:52:54.213Z,.64
2022-09-02T01:53:26.132Z,.32
2022-09-02T01:53:59.004Z,1.77
2022-09-02T01:54:30.133Z,0
2022-09-02T01:55:03.305Z,0
2022-09-02T01:55:35.320Z,0
2022-09-02T01:56:07.188Z,1.77
2022-09-02T01:56:34.783Z,2.09
2022-09-02T01:56:55.050Z,1.44
2022-09-02T01:57:26.180Z,1.77
2022-09-02T01:57:58.153Z,1.77
2022-09-02T01:58:31.054Z,1.77
2022-09-02T01:59:02.158Z,3.54
2022-09-02T01:59:34.120Z,3.54
2022-09-02T02:00:08.285Z,1.44
2022-09-02T02:00:35.402Z,1.77
2022-09-02T02:00:54.244Z,1.77
2022-09-02T02:01:26.119Z,.64
2022-09-02T02:01:58.235Z,1.77
2022-09-02T02:02:30.134Z,.32
2022-09-02T02:03:02.131Z,2.09
2022-09-02T02:03:35.502Z,2.57
2022-09-02T02:04:07.538Z,2.89
2022-09-02T02:04:33.916Z,3.21
2022-09-02T02:04:54.779Z,1.77
2022-09-02T02:05:26.116Z,1.77
2022-09-02T02:05:59.090Z,2.57
2022-09-02T02:06:30.136Z,2.09
2022-09-02T02:07:03.155Z,1.77
2022-09-02T02:07:34.010Z,1.77
2022-09-02T02:08:06.158Z,.64
2022-09-02T02:08:33.946Z,1.44
2022-09-02T02:08:54.975Z,1.44
2022-09-02T02:09:26.129Z,1.44
2022-09-02T02:09:58.975Z,1.44
2022-09-02T02:10:31.172Z,3.21
2022-09-02T02:11:02.139Z,1.77
2022-09-02T02:11:33.982Z,2.89
2022-09-02T02:12:06.153Z,1.12
2022-09-02T02:12:34.045Z,0
2022-09-02T02:12:54.213Z,2.09
2022-09-02T02:13:27.480Z,1.77
2022-09-02T02:13:58.137Z,1.77
2022-09-02T02:14:30.192Z,1.77
2022-09-02T02:15:02.981Z,1.77
2022-09-02T02:15:34.074Z,1.77
2022-09-02T02:16:06.337Z,1.77
2022-09-02T02:16:33.998Z,1.77
2022-09-02T02:16:54.138Z,1.77
2022-09-02T02:17:26.162Z,0
2022-09-02T02:17:59.383Z,0
2022-09-02T02:18:30.166Z,.64
2022-09-02T02:19:02.132Z,3.21
2022-09-02T02:19:34.007Z,3.21
2022-09-02T02:20:07.533Z,1.77
2022-09-02T02:20:34.623Z,1.77
2022-09-02T02:20:54.251Z,1.44
2022-09-02T02:21:26.113Z,0
2022-09-02T02:21:59.259Z,.64
2022-09-02T02:22:31.237Z,4.66
2022-09-02T02:23:02.923Z,4.66
2022-09-02T02:23:34.167Z,4.02
2022-09-02T02:24:07.593Z,2.89
2022-09-02T02:24:34.160Z,2.09
2022-09-02T02:24:55.183Z,1.77
2022-09-02T02:25:26.072Z,1.77
2022-09-02T02:25:59.170Z,1.77
2022-09-02T02:26:30.190Z,1.77
2022-09-02T02:27:02.528Z,1.77
2022-09-02T02:27:33.981Z,2.09
2022-09-02T02:28:06.149Z,1.77
2022-09-02T02:28:34.076Z,1.77
2022-09-02T02:28:54.265Z,1.44
2022-09-02T02:29:26.248Z,1.12
2022-09-02T02:29:58.518Z,1.12
2022-09-02T02:30:30.368Z,1.77
2022-09-02T02:31:02.232Z,1.12
2022-09-02T02:31:34.893Z,2.89
2022-09-02T02:32:06.262Z,3.54
2022-09-02T02:32:34.035Z,2.89
2022-09-02T02:32:55.273Z,2.89
2022-09-02T02:33:31.936Z,1.77
2022-09-02T02:33:58.221Z,.32
2022-09-02T02:34:30.300Z,1.12
2022-09-02T02:35:02.094Z,1.77
2022-09-02T02:35:34.028Z,2.09
2022-09-02T02:36:08.505Z,2.89
2022-09-02T02:36:34.006Z,2.89
2022-09-02T02:36:54.136Z,1.77
2022-09-02T02:37:26.141Z,1.77
2022-09-02T02:37:59.283Z,.32
2022-09-02T02:38:31.039Z,0
2022-09-02T02:39:02.181Z,0
2022-09-02T02:39:34.623Z,0
2022-09-02T02:40:07.491Z,3.21
2022-09-02T02:40:35.014Z,3.54
2022-09-02T02:40:54.300Z,1.12
2022-09-02T02:41:26.089Z,.32
2022-09-02T02:41:59.061Z,.32
2022-09-02T02:42:30.198Z,1.12
2022-09-02T02:43:02.164Z,2.89
2022-09-02T02:43:33.980Z,1.77
2022-09-02T02:44:06.136Z,1.77
2022-09-02T02:44:34.012Z,1.77
2022-09-02T02:44:54.254Z,1.77
2022-09-02T02:45:26.871Z,1.77
2022-09-02T02:45:58.229Z,0
2022-09-02T02:46:30.197Z,0
2022-09-02T02:47:02.291Z,1.77
2022-09-02T02:47:33.935Z,1.12
2022-09-02T02:48:06.098Z,.64
2022-09-02T02:48:33.983Z,0
2022-09-02T02:48:54.239Z,1.44
2022-09-02T02:49:26.080Z,1.77
2022-09-02T02:49:58.366Z,1.44
2022-09-02T02:50:30.728Z,1.77
2022-09-02T02:51:02.110Z,1.77
2022-09-02T02:51:35.174Z,1.77
2022-09-02T02:52:07.474Z,1.12
2022-09-02T02:52:34.017Z,0
2022-09-02T02:52:54.106Z,0
2022-09-02T02:53:27.505Z,0
2022-09-02T02:53:59.033Z,1.77
2022-09-02T02:54:34.901Z,1.77
2022-09-02T02:55:02.084Z,1.77
2022-09-02T02:55:34.516Z,1.77
2022-09-02T02:56:06.081Z,3.54
2022-09-02T02:56:34.154Z,3.54
2022-09-02T02:56:57.471Z,2.09
2022-09-02T02:57:26.059Z,2.09
2022-09-02T02:57:58.338Z,1.77
2022-09-02T02:58:30.154Z,3.54
2022-09-02T02:59:02.164Z,3.54
2022-09-02T02:59:33.985Z,3.21
2022-09-02T03:00:06.830Z,2.09
2022-09-02T03:00:34.083Z,2.09
2022-09-02T03:00:54.102Z,2.57
2022-09-02T03:01:26.144Z,3.21
2022-09-02T03:01:58.852Z,3.54
2022-09-02T03:02:30.364Z,3.54
2022-09-02T03:03:02.247Z,2.89
2022-09-02T03:03:34.041Z,2.09
2022-09-02T03:04:06.460Z,2.57
2022-09-02T03:04:34.332Z,3.54
2022-09-02T03:04:54.117Z,2.89
2022-09-02T03:05:26.220Z,2.57
2022-09-02T03:05:58.938Z,2.57
2022-09-02T03:06:30.118Z,1.77
2022-09-02T03:07:02.139Z,2.09
2022-09-02T03:07:34.027Z,2.89
2022-09-02T03:08:06.080Z,3.54
2022-09-02T03:08:34.031Z,3.54
2022-09-02T03:08:55.025Z,3.54
2022-09-02T03:09:26.024Z,3.54
2022-09-02T03:09:58.447Z,3.54
2022-09-02T03:10:30.090Z,2.57
2022-09-02T03:11:03.692Z,1.77
2022-09-02T03:11:34.028Z,1.77
2022-09-02T03:12:06.080Z,1.77
2022-09-02T03:12:34.103Z,1.77
2022-09-02T03:12:54.131Z,2.57
2022-09-02T03:13:26.680Z,3.54
2022-09-02T03:13:58.557Z,3.54
2022-09-02T03:14:30.142Z,2.09
2022-09-02T03:15:02.278Z,1.77
2022-09-02T03:15:34.000Z,2.09
2022-09-02T03:16:06.918Z,.64
2022-09-02T03:16:34.220Z,1.44
2022-09-02T03:16:54.150Z,3.54
2022-09-02T03:17:26.144Z,3.54
2022-09-02T03:17:58.343Z,3.54
2022-09-02T03:18:30.083Z,3.54
2022-09-02T03:19:02.115Z,2.57
2022-09-02T03:19:34.354Z,1.77
2022-09-02T03:20:06.335Z,1.77
2022-09-02T03:20:34.691Z,2.57
2022-09-02T03:20:54.127Z,2.57
2022-09-02T03:21:26.079Z,2.09
2022-09-02T03:21:58.336Z,2.89
2022-09-02T03:22:30.078Z,2.57
2022-09-02T03:23:02.071Z,2.57
2022-09-02T03:23:34.958Z,2.09
2022-09-02T03:24:06.104Z,2.89
2022-09-02T03:24:33.937Z,3.54
2022-09-02T03:24:54.092Z,1.77
2022-09-02T03:25:26.111Z,.32
2022-09-02T03:25:58.872Z,1.77
2022-09-02T03:26:30.084Z,1.77
2022-09-02T03:27:02.372Z,.32
2022-09-02T03:27:34.002Z,1.77
2022-09-02T03:28:06.102Z,3.54
2022-09-02T03:28:34.749Z,2.09
2022-09-02T03:28:54.083Z,1.44
2022-09-02T03:29:26.103Z,1.77
2022-09-02T03:29:58.551Z,1.44
2022-09-02T03:30:30.150Z,.64
2022-09-02T03:31:03.140Z,0
2022-09-02T03:31:34.085Z,.32
2022-09-02T03:32:06.124Z,2.89
2022-09-02T03:32:34.817Z,3.54
2022-09-02T03:32:59.412Z,2.57
2022-09-02T03:33:26.117Z,2.09
2022-09-02T03:33:58.379Z,2.57
2022-09-02T03:34:30.081Z,1.77
2022-09-02T03:35:02.268Z,0
2022-09-02T03:35:34.014Z,1.12
2022-09-02T03:36:06.067Z,2.57
2022-09-02T03:36:33.986Z,2.09
2022-09-02T03:36:54.043Z,1.77
2022-09-02T03:37:26.122Z,1.77
2022-09-02T03:37:58.322Z,2.09
2022-09-02T03:38:30.076Z,3.21
2022-09-02T03:39:02.154Z,1.44
2022-09-02T03:39:34.024Z,2.09
2022-09-02T03:40:06.324Z,2.09
2022-09-02T03:40:34.752Z,1.77
2022-09-02T03:40:54.186Z,1.12
2022-09-02T03:41:26.995Z,1.12
2022-09-02T03:41:58.324Z,2.57
2022-09-02T03:42:30.198Z,2.89
2022-09-02T03:43:02.053Z,1.44
2022-09-02T03:43:36.650Z,1.44
2022-09-02T03:44:06.259Z,1.77
2022-09-02T03:44:34.110Z,1.12
2022-09-02T03:44:54.137Z,1.77
2022-09-02T03:45:26.214Z,1.44
2022-09-02T03:45:58.398Z,3.54
2022-09-02T03:46:30.865Z,2.89
2022-09-02T03:47:02.097Z,1.12
2022-09-02T03:47:33.962Z,1.44
2022-09-02T03:48:06.113Z,2.09
2022-09-02T03:48:34.950Z,2.09
2022-09-02T03:48:54.099Z,1.77
2022-09-02T03:49:26.096Z,.32
2022-09-02T03:49:58.485Z,1.77
2022-09-02T03:50:30.154Z,1.77
2022-09-02T03:51:02.189Z,0
2022-09-02T03:51:34.919Z,0
2022-09-02T03:52:06.115Z,0
2022-09-02T03:52:34.087Z,0
2022-09-02T03:52:54.066Z,0
2022-09-02T03:53:26.349Z,0
2022-09-02T03:54:01.445Z,0
2022-09-02T03:54:30.124Z,0
2022-09-02T03:55:02.992Z,0
2022-09-02T03:55:35.639Z,0
2022-09-02T03:56:10.196Z,0
2022-09-02T03:56:33.989Z,0
2022-09-02T03:56:54.122Z,0
2022-09-02T03:57:26.050Z,0
2022-09-02T03:57:58.340Z,1.77
2022-09-02T03:58:30.042Z,0
2022-09-02T03:59:02.058Z,0
2022-09-02T03:59:33.963Z,0
2022-09-02T04:00:06.567Z,0
2022-09-02T04:00:34.114Z,.32
2022-09-02T04:00:55.140Z,1.77
2022-09-02T04:01:27.491Z,0
2022-09-02T04:01:58.814Z,0
2022-09-02T04:02:30.247Z,0
2022-09-02T04:03:02.174Z,.64
2022-09-02T04:03:33.959Z,1.44
2022-09-02T04:04:06.143Z,0
2022-09-02T04:04:33.994Z,.32
2022-09-02T04:04:55.985Z,0
2022-09-02T04:05:26.951Z,0
2022-09-02T04:05:58.343Z,0
2022-09-02T04:06:32.438Z,1.44
2022-09-02T04:07:02.486Z,1.44
2022-09-02T04:07:33.983Z,1.44
2022-09-02T04:08:06.097Z,0
2022-09-02T04:08:34.863Z,0
2022-09-02T04:08:54.013Z,0
2022-09-02T04:09:26.915Z,0
2022-09-02T04:09:58.566Z,1.77
2022-09-02T04:10:30.069Z,1.12
2022-09-02T04:11:02.266Z,0
2022-09-02T04:11:33.998Z,.32
2022-09-02T04:12:06.930Z,.64
2022-09-02T04:12:34.025Z,0
2022-09-02T04:12:54.073Z,0
2022-09-02T04:13:26.078Z,2.09
2022-09-02T04:13:58.282Z,2.57
2022-09-02T04:14:30.261Z,0
2022-09-02T04:15:02.162Z,0
2022-09-02T04:15:34.019Z,0
2022-09-02T04:16:06.141Z,1.77
2022-09-02T04:16:34.719Z,.64
2022-09-02T04:16:55.101Z,0
2022-09-02T04:17:26.074Z,0
2022-09-02T04:17:58.615Z,.64
2022-09-02T04:18:30.126Z,0
2022-09-02T04:19:02.147Z,0
2022-09-02T04:19:34.044Z,0
2022-09-02T04:20:07.760Z,0
2022-09-02T04:20:34.019Z,1.44
2022-09-02T04:20:54.601Z,.32
2022-09-02T04:21:26.096Z,.32
2022-09-02T04:21:58.329Z,0
2022-09-02T04:22:30.102Z,.64
2022-09-02T04:23:02.078Z,0
2022-09-02T04:23:34.073Z,0
2022-09-02T04:24:06.013Z,0
2022-09-02T04:24:34.084Z,0
2022-09-02T04:24:54.035Z,0
2022-09-02T04:25:27.698Z,0
2022-09-02T04:25:58.292Z,0
2022-09-02T04:26:30.050Z,.32
2022-09-02T04:27:04.364Z,0
2022-09-02T04:27:34.967Z,0
2022-09-02T04:28:06.017Z,0
2022-09-02T04:28:35.366Z,1.77
2022-09-02T04:28:54.094Z,1.44
2022-09-02T04:29:27.652Z,0
2022-09-02T04:29:58.700Z,0
2022-09-02T04:30:29.976Z,.64
2022-09-02T04:31:02.061Z,.32
2022-09-02T04:31:36.201Z,0
2022-09-02T04:32:06.214Z,0
2022-09-02T04:32:38.398Z,0
2022-09-02T04:32:54.082Z,0
2022-09-02T04:33:26.083Z,1.77
2022-09-02T04:33:58.579Z,1.77
2022-09-02T04:34:30.075Z,.32
2022-09-02T04:35:03.146Z,0
2022-09-02T04:35:34.024Z,0
2022-09-02T04:36:06.116Z,1.12
2022-09-02T04:36:34.265Z,.64
2022-09-02T04:36:55.475Z,.64
2022-09-02T04:37:26.667Z,.32
2022-09-02T04:37:58.473Z,1.12
2022-09-02T04:38:30.013Z,0
2022-09-02T04:39:02.212Z,0
2022-09-02T04:39:34.085Z,0
2022-09-02T04:40:06.618Z,0
2022-09-02T04:40:35.144Z,1.44
2022-09-02T04:40:55.170Z,.32
2022-09-02T04:41:26.237Z,0
2022-09-02T04:41:58.649Z,0
2022-09-02T04:42:30.900Z,0
2022-09-02T04:43:02.334Z,0
2022-09-02T04:43:35.124Z,0
2022-09-02T04:44:06.267Z,0
2022-09-02T04:44:34.233Z,0
2022-09-02T04:44:54.256Z,0
2022-09-02T04:45:29.753Z,0
2022-09-02T04:45:58.749Z,0
2022-09-02T04:46:34.734Z,0
2022-09-02T04:47:02.198Z,0
2022-09-02T04:47:34.742Z,0
2022-09-02T04:48:06.296Z,0
2022-09-02T04:48:36.355Z,0
2022-09-02T04:48:55.081Z,0
2022-09-02T04:49:26.225Z,0
2022-09-02T04:49:58.894Z,0
2022-09-02T04:50:30.216Z,0
2022-09-02T04:51:02.219Z,1.12
2022-09-02T04:51:34.273Z,0
2022-09-02T04:52:09.508Z,0
2022-09-02T04:52:34.146Z,0
2022-09-02T04:52:54.189Z,0
2022-09-02T04:53:26.236Z,0
2022-09-02T04:53:58.799Z,1.77
2022-09-02T04:54:30.234Z,.32
2022-09-02T04:55:02.246Z,0
2022-09-02T04:55:35.138Z,0
2022-09-02T04:56:06.358Z,0
2022-09-02T04:56:34.897Z,0
2022-09-02T04:56:54.191Z,1.77
2022-09-02T04:57:26.250Z,1.77
2022-09-02T04:57:59.780Z,1.77
2022-09-02T04:58:30.187Z,.64
2022-09-02T04:59:02.168Z,.32
2022-09-02T04:59:35.080Z,.32
2022-09-02T05:00:06.481Z,.64
2022-09-02T05:00:34.655Z,1.12
2022-09-02T05:00:54.163Z,2.09
2022-09-02T05:01:27.739Z,.64
2022-09-02T05:01:58.732Z,0
2022-09-02T05:02:30.212Z,0
2022-09-02T05:03:02.739Z,0
2022-09-02T05:03:34.202Z,0
2022-09-02T05:04:06.306Z,0
2022-09-02T05:04:34.515Z,0
2022-09-02T05:04:54.142Z,0
2022-09-02T05:05:26.331Z,0
2022-09-02T05:05:58.575Z,0
2022-09-02T05:06:31.266Z,0
2022-09-02T05:07:02.721Z,0
2022-09-02T05:07:34.282Z,0
2022-09-02T05:08:07.045Z,0
2022-09-02T05:08:34.374Z,0
2022-09-02T05:08:55.001Z,0
2022-09-02T05:09:26.221Z,0
2022-09-02T05:09:59.467Z,0
2022-09-02T05:10:30.154Z,0
2022-09-02T05:11:02.336Z,0
2022-09-02T05:11:34.270Z,0
2022-09-02T05:12:06.345Z,0
2022-09-02T05:12:34.677Z,0
2022-09-02T05:12:54.213Z,2.09
2022-09-02T05:13:26.257Z,.32
2022-09-02T05:13:59.105Z,0
2022-09-02T05:14:31.197Z,0
2022-09-02T05:15:02.280Z,.32
2022-09-02T05:15:36.074Z,0
2022-09-02T05:16:06.561Z,.64
2022-09-02T05:16:34.254Z,1.44
2022-09-02T05:16:54.152Z,1.77
2022-09-02T05:17:26.198Z,0
2022-09-02T05:17:58.713Z,0
2022-09-02T05:18:31.028Z,1.12
2022-09-02T05:19:02.494Z,0
2022-09-02T05:19:35.168Z,.32
2022-09-02T05:20:06.637Z,.32
2022-09-02T05:20:34.290Z,.32
2022-09-02T05:20:55.463Z,0
2022-09-02T05:21:26.217Z,0
2022-09-02T05:21:58.658Z,1.12
2022-09-02T05:22:30.227Z,1.44
2022-09-02T05:23:02.224Z,.64
2022-09-02T05:23:34.281Z,0
2022-09-02T05:24:06.277Z,.32
2022-09-02T05:24:35.942Z,1.44
2022-09-02T05:24:54.203Z,1.44
2022-09-02T05:25:26.283Z,0
2022-09-02T05:25:58.651Z,.32
2022-09-02T05:26:30.168Z,1.77
2022-09-02T05:27:02.549Z,1.77
2022-09-02T05:27:34.180Z,.32
2022-09-02T05:28:06.268Z,1.12
2022-09-02T05:28:34.225Z,1.44
2022-09-02T05:28:54.166Z,1.12
2022-09-02T05:29:26.222Z,.32
2022-09-02T05:29:58.903Z,3.54
2022-09-02T05:30:30.265Z,0
2022-09-02T05:31:02.275Z,0
2022-09-02T05:31:34.349Z,1.44
2022-09-02T05:32:06.255Z,0
2022-09-02T05:32:37.751Z,.32
2022-09-02T05:32:54.219Z,1.44
2022-09-02T05:33:26.826Z,1.77
2022-09-02T05:33:58.629Z,0
2022-09-02T05:34:30.121Z,0
2022-09-02T05:35:02.328Z,0
2022-09-02T05:35:34.244Z,0
2022-09-02T05:36:06.257Z,1.77
2022-09-02T05:36:34.222Z,2.09
2022-09-02T05:36:55.246Z,.64
2022-09-02T05:37:26.221Z,0
2022-09-02T05:38:00.953Z,0
2022-09-02T05:38:32.729Z,0
2022-09-02T05:39:02.312Z,0
2022-09-02T05:39:34.285Z,.32
2022-09-02T05:40:06.745Z,0
2022-09-02T05:40:34.380Z,.64
2022-09-02T05:40:54.235Z,0
2022-09-02T05:41:26.238Z,.32
2022-09-02T05:41:59.277Z,0
2022-09-02T05:42:30.093Z,0
2022-09-02T05:43:02.145Z,0
2022-09-02T05:43:35.681Z,0
2022-09-02T05:44:06.209Z,0
2022-09-02T05:44:34.219Z,0
2022-09-02T05:44:54.103Z,0
2022-09-02T05:45:26.312Z,1.12
2022-09-02T05:45:59.224Z,1.44
2022-09-02T05:46:31.317Z,.32
2022-09-02T05:47:03.046Z,0
2022-09-02T05:47:34.237Z,0
2022-09-02T05:48:06.254Z,1.12
2022-09-02T05:48:34.219Z,.32
2022-09-02T05:48:54.124Z,0
2022-09-02T05:49:29.067Z,0
2022-09-02T05:49:59.477Z,0
2022-09-02T05:50:31.887Z,1.77
2022-09-02T05:51:02.176Z,1.77
2022-09-02T05:51:34.546Z,1.44
2022-09-02T05:52:06.261Z,0
2022-09-02T05:52:36.338Z,0
2022-09-02T05:52:54.193Z,0
2022-09-02T05:53:26.248Z,1.44
2022-09-02T05:53:58.994Z,1.77
2022-09-02T05:54:30.152Z,2.09
2022-09-02T05:55:02.305Z,0
2022-09-02T05:55:34.219Z,0
2022-09-02T05:56:06.241Z,0
2022-09-02T05:56:34.507Z,0
2022-09-02T05:56:54.202Z,1.12
2022-09-02T05:57:26.287Z,3.54
2022-09-02T05:57:58.693Z,2.57
2022-09-02T05:58:30.087Z,1.44
2022-09-02T05:59:02.857Z,1.44
2022-09-02T05:59:34.369Z,1.77
2022-09-02T06:00:07.763Z,1.12
2022-09-02T06:00:34.277Z,0
2022-09-02T06:00:55.193Z,0
2022-09-02T06:01:26.327Z,0
2022-09-02T06:01:58.583Z,0
2022-09-02T06:02:30.322Z,.32
2022-09-02T06:03:02.241Z,0
2022-09-02T06:03:35.000Z,0
2022-09-02T06:04:06.865Z,2.09
2022-09-02T06:04:34.263Z,.32
2022-09-02T06:04:54.162Z,0
2022-09-02T06:05:26.189Z,0
2022-09-02T06:06:03.030Z,1.44
2022-09-02T06:06:30.126Z,2.89
2022-09-02T06:07:02.615Z,1.12
2022-09-02T06:07:34.256Z,0
2022-09-02T06:08:06.248Z,.32
2022-09-02T06:08:34.234Z,1.44
2022-09-02T06:08:55.095Z,.32
2022-09-02T06:09:26.284Z,1.77
2022-09-02T06:09:59.062Z,2.09
2022-09-02T06:10:30.121Z,0
2022-09-02T06:11:02.993Z,1.12
2022-09-02T06:11:34.255Z,1.44
2022-09-02T06:12:06.311Z,1.77
2022-09-02T06:12:34.250Z,1.12
2022-09-02T06:12:54.136Z,0
2022-09-02T06:13:26.223Z,1.12
2022-09-02T06:13:58.626Z,0
2022-09-02T06:14:30.130Z,1.12
2022-09-02T06:15:02.269Z,.32
2022-09-02T06:15:35.225Z,1.44
2022-09-02T06:16:06.418Z,1.77
2022-09-02T06:16:34.348Z,1.12
2022-09-02T06:16:54.149Z,1.77
2022-09-02T06:17:26.229Z,.32
2022-09-02T06:17:58.612Z,1.44
2022-09-02T06:18:30.213Z,0
2022-09-02T06:19:02.479Z,1.12
2022-09-02T06:19:34.218Z,1.77
2022-09-02T06:20:06.536Z,.64
2022-09-02T06:20:34.280Z,0
2022-09-02T06:20:54.143Z,0
2022-09-02T06:21:26.161Z,.32
2022-09-02T06:21:59.287Z,1.44
2022-09-02T06:22:30.119Z,1.12
2022-09-02T06:23:02.135Z,0
2022-09-02T06:23:34.090Z,0
2022-09-02T06:24:06.225Z,.32
2022-09-02T06:24:34.689Z,0
2022-09-02T06:24:54.136Z,0
2022-09-02T06:25:29.275Z,1.44
2022-09-02T06:25:59.149Z,1.12
2022-09-02T06:26:30.115Z,1.44
2022-09-02T06:27:02.617Z,1.77
2022-09-02T06:27:34.245Z,1.77
2022-09-02T06:28:07.380Z,0
2022-09-02T06:28:34.290Z,.64
2022-09-02T06:28:54.160Z,.32
2022-09-02T06:29:26.843Z,1.12
2022-09-02T06:29:58.804Z,.64
2022-09-02T06:30:30.254Z,0
2022-09-02T06:31:02.191Z,.32
2022-09-02T06:31:34.284Z,0
2022-09-02T06:32:06.599Z,1.44
2022-09-02T06:32:34.596Z,3.54
2022-09-02T06:32:54.135Z,0
2022-09-02T06:33:26.199Z,3.21
2022-09-02T06:33:58.631Z,.32
2022-09-02T06:34:30.685Z,2.09
2022-09-02T06:35:02.120Z,1.77
2022-09-02T06:35:34.243Z,1.12
2022-09-02T06:36:06.257Z,0
2022-09-02T06:36:35.774Z,0
2022-09-02T06:36:54.144Z,.64
2022-09-02T06:37:27.059Z,1.77
2022-09-02T06:37:58.735Z,3.54
2022-09-02T06:38:31.128Z,1.77
2022-09-02T06:39:02.266Z,0
2022-09-02T06:39:36.626Z,0
2022-09-02T06:40:09.056Z,0
2022-09-02T06:40:34.393Z,.32
2022-09-02T06:41:10.425Z,.32
2022-09-02T06:41:34.334Z,1.77
2022-09-02T06:41:58.557Z,1.12
2022-09-02T06:42:30.070Z,4.98
2022-09-02T06:43:02.895Z,1.44
2022-09-02T06:43:42.521Z,1.77
2022-09-02T06:44:07.164Z,2.57
2022-09-02T06:44:34.260Z,2.09
2022-09-02T06:44:54.715Z,.32
2022-09-02T06:45:26.247Z,.32
2022-09-02T06:45:58.953Z,.32
2022-09-02T06:46:30.543Z,0
2022-09-02T06:47:04.446Z,0
2022-09-02T06:47:35.188Z,.32
2022-09-02T06:48:07.962Z,.32
2022-09-02T06:48:34.414Z,.32
2022-09-02T06:48:54.248Z,1.44
2022-09-02T06:49:26.375Z,.32
2022-09-02T06:49:59.639Z,0
2022-09-02T06:50:30.227Z,0
2022-09-02T06:51:02.280Z,0
2022-09-02T06:51:34.453Z,0